地図

経路データ

SID SEASON NUMBER BASIN SUBBASIN NAME ISO_TIME NATURE LAT LON WMO_WIND WMO_PRES WMO_AGENCY TRACK_TYPE DIST2LAND LANDFALL IFLAG USA_AGENCY USA_ATCF_ID USA_LAT USA_LON USA_RECORD USA_STATUS USA_WIND USA_PRES USA_SSHS USA_R34_NE USA_R34_SE USA_R34_SW USA_R34_NW USA_R50_NE USA_R50_SE USA_R50_SW USA_R50_NW USA_R64_NE USA_R64_SE USA_R64_SW USA_R64_NW USA_POCI USA_ROCI USA_RMW USA_EYE TOKYO_LAT TOKYO_LON TOKYO_GRADE TOKYO_WIND TOKYO_PRES TOKYO_R50_DIR TOKYO_R50_LONG TOKYO_R50_SHORT TOKYO_R30_DIR TOKYO_R30_LONG TOKYO_R30_SHORT TOKYO_LAND CMA_LAT CMA_LON CMA_CAT CMA_WIND CMA_PRES HKO_LAT HKO_LON HKO_CAT HKO_WIND HKO_PRES NEWDELHI_LAT NEWDELHI_LON NEWDELHI_GRADE NEWDELHI_WIND NEWDELHI_PRES NEWDELHI_CI NEWDELHI_DP NEWDELHI_POCI REUNION_LAT REUNION_LON REUNION_TYPE REUNION_WIND REUNION_PRES REUNION_TNUM REUNION_CI REUNION_RMW REUNION_R34_NE REUNION_R34_SE REUNION_R34_SW REUNION_R34_NW REUNION_R50_NE REUNION_R50_SE REUNION_R50_SW REUNION_R50_NW REUNION_R64_NE REUNION_R64_SE REUNION_R64_SW REUNION_R64_NW BOM_LAT BOM_LON BOM_TYPE BOM_WIND BOM_PRES BOM_TNUM BOM_CI BOM_RMW BOM_R34_NE BOM_R34_SE BOM_R34_SW BOM_R34_NW BOM_R50_NE BOM_R50_SE BOM_R50_SW BOM_R50_NW BOM_R64_NE BOM_R64_SE BOM_R64_SW BOM_R64_NW BOM_ROCI BOM_POCI BOM_EYE BOM_POS_METHOD BOM_PRES_METHOD NADI_LAT NADI_LON NADI_CAT NADI_WIND NADI_PRES WELLINGTON_LAT WELLINGTON_LON WELLINGTON_WIND WELLINGTON_PRES DS824_LAT DS824_LON DS824_STAGE DS824_WIND DS824_PRES TD9636_LAT TD9636_LON TD9636_STAGE TD9636_WIND TD9636_PRES TD9635_LAT TD9635_LON TD9635_WIND TD9635_PRES TD9635_ROCI NEUMANN_LAT NEUMANN_LON NEUMANN_CLASS NEUMANN_WIND NEUMANN_PRES MLC_LAT MLC_LON MLC_CLASS MLC_WIND MLC_PRES USA_GUST BOM_GUST BOM_GUST_PER REUNION_GUST REUNION_GUST_PER USA_SEAHGT USA_SEARAD_NE USA_SEARAD_SE USA_SEARAD_SW USA_SEARAD_NW STORM_SPEED STORM_DIR
1996201N07137 1996 52 WP MM GLORIA 1996-07-19 00:00:00 NR 7.10000 136.900 main 885 885 O_____________ jtwc_wp WP091996 7.10000 136.900 15 -1 6 330
1996201N07137 1996 52 WP MM GLORIA 1996-07-19 03:00:00 NR 7.33750 136.760 main 906 906 P_____________ WP091996 7.33750 136.760 15 -1 6 329
1996201N07137 1996 52 WP MM GLORIA 1996-07-19 06:00:00 NR 7.60000 136.600 main 936 936 O_____________ jtwc_wp WP091996 7.60000 136.600 15 -1 7 328
1996201N07137 1996 52 WP MM GLORIA 1996-07-19 09:00:00 NR 7.90000 136.408 main 967 967 P_____________ WP091996 7.90000 136.408 15 -1 7 327
1996201N07137 1996 52 WP MM GLORIA 1996-07-19 12:00:00 NR 8.20000 136.200 main 999 999 O_____________ jtwc_wp WP091996 8.20000 136.200 15 -1 7 324
1996201N07137 1996 52 WP MM GLORIA 1996-07-19 15:00:00 NR 8.46499 136.000 main 1031 1019 P_____________ WP091996 8.46499 136.000 15 -1 6 322
1996201N07137 1996 52 WP MM GLORIA 1996-07-19 18:00:00 NR 8.70000 135.800 main 1019 1000 O_____________ jtwc_wp WP091996 8.70000 135.800 15 -1 6 318
1996201N07137 1996 52 WP MM GLORIA 1996-07-19 21:00:00 NR 8.90749 135.600 main 1000 981 P_____________ WP091996 8.90749 135.600 15 -1 6 315
1996201N07137 1996 52 WP MM GLORIA 1996-07-20 00:00:00 NR 9.10000 135.400 main 981 963 O_____________ jtwc_wp WP091996 9.10000 135.400 15 -1 5 315
1996201N07137 1996 52 WP MM GLORIA 1996-07-20 03:00:00 NR 9.29246 135.215 main 963 946 P_____________ WP091996 9.29246 135.215 15 -1 6 315
1996201N07137 1996 52 WP MM GLORIA 1996-07-20 06:00:00 NR 9.50000 135.000 main 946 918 O_____________ jtwc_wp WP091996 9.50000 135.000 15 -1 7 312
1996201N07137 1996 52 WP MM GLORIA 1996-07-20 09:00:00 NR 9.73499 134.722 main 918 895 P_____________ WP091996 9.73499 134.722 17 -1 8 310
1996201N07137 1996 52 WP MM GLORIA 1996-07-20 12:00:00 NR 10.0000 134.400 main 895 870 O_____________ jtwc_wp WP091996 10.0000 134.400 20 -1 9 311
1996201N07137 1996 52 WP MM GLORIA 1996-07-20 15:00:00 NR 10.2924 134.072 main 872 836 P_____________ WP091996 10.2924 134.072 20 -1 9 311
1996201N07137 1996 52 WP MM GLORIA 1996-07-20 18:00:00 NR 10.6000 133.700 main 836 800 O_____________ jtwc_wp WP091996 10.6000 133.700 20 -1 10 308
1996201N07137 1996 52 WP MM GLORIA 1996-07-20 21:00:00 NR 10.9000 133.272 main 800 750 P_____________ WP091996 10.9000 133.272 20 -1 10 294
1996201N07137 1996 52 WP MM GLORIA 1996-07-21 00:00:00 NR 11.0200 132.740 main 740 704 O__O__________ jtwc_wp WP091996 11.2000 132.800 20 -1 10.3000 132.500 TD 25 1000 10 289
1996201N07137 1996 52 WP MM GLORIA 1996-07-21 03:00:00 NR 11.2325 132.300 main 704 678 P__P__________ WP091996 11.5000 132.300 22 -1 10.6975 132.300 TD 25 1000 9 307
1996201N07137 1996 52 WP MM GLORIA 1996-07-21 06:00:00 TS 11.5667 131.989 1004 tokyo main 679 651 OOOO__________ jtwc_wp WP091996 11.8000 131.800 25 -1 11.8000 132.200 2 1004 0 0 0 11.8000 132.200 1 29 1004 11.1000 132.100 TD 25 1000 9 320
1996201N07137 1996 52 WP MM GLORIA 1996-07-21 09:00:00 TS 11.8967 131.729 main 651 633 PPPP__________ WP091996 12.1074 131.335 25 -1 12.0751 131.953 2 1004 0 0 12.0751 131.953 1 29 1004 11.5075 131.900 TD 25 1000 8 322
1996201N07137 1996 52 WP MM GLORIA 1996-07-21 12:00:00 TS 12.2143 131.471 1004 tokyo main 635 608 OOOO__________ jtwc_wp WP091996 12.4000 130.900 25 -1 12.3000 131.700 2 1004 0 0 0 12.3000 131.700 1 29 1004 11.9000 131.700 TD 25 1000 8 318
1996201N07137 1996 52 WP MM GLORIA 1996-07-21 15:00:00 TS 12.4574 131.217 main 611 583 PPPP__________ WP091996 12.6724 130.492 27 -1 12.4499 131.430 2 1003 0 0 12.4499 131.430 1 29 1003 12.2574 131.515 TD 25 1000 7 310
1996201N07137 1996 52 WP MM GLORIA 1996-07-21 18:00:00 TS 12.6750 130.900 1002 tokyo main 587 548 OOOO__________ jtwc_wp WP091996 12.9000 130.100 30 -1 12.6000 131.100 2 1002 0 0 0 12.6000 131.100 1 29 1002 12.6000 131.300 TD 25 1000 8 304
1996201N07137 1996 52 WP MM GLORIA 1996-07-21 21:00:00 TS 12.9269 130.513 main 548 509 PPPP__________ WP091996 13.0650 129.685 32 -1 12.8425 130.673 2 1002 0 0 12.8425 130.673 1 29 1001 12.9575 131.022 TD 25 1000 9 303
1996201N07137 1996 52 WP MM GLORIA 1996-07-22 00:00:00 TS 13.1750 130.100 1002 tokyo main 511 475 OOOO__________ jtwc_wp WP091996 13.2000 129.300 35 0 13.1000 130.200 2 1002 0 0 0 13.1000 130.200 1 29 1000 13.3000 130.700 TD 25 1000 9 301
1996201N07137 1996 52 WP MM GLORIA 1996-07-22 03:00:00 TS 13.3949 129.716 main 475 440 PPPP__________ WP091996 13.3424 128.977 37 0 13.3073 129.765 2 1001 0 0 13.3073 129.765 1 31 999 13.6225 130.357 TD 27 999 9 299
1996201N07137 1996 52 WP MM GLORIA 1996-07-22 06:00:00 TS 13.6000 129.325 1000 tokyo main 440 409 OOOO__________ jtwc_wp WP091996 13.5000 128.700 40 0 13.5000 129.300 2 1000 0 0 0 13.5000 129.300 2 34 998 13.9000 130.000 TD 30 998 9 296
1996201N07137 1996 52 WP MM GLORIA 1996-07-22 09:00:00 TS 13.7944 128.891 main 409 382 PPPP__________ WP091996 13.6850 128.435 42 0 13.6851 128.742 2 998 0 0 13.6851 128.742 2 34 998 14.1225 129.642 TD 32 996 9 296
1996201N07137 1996 52 WP MM GLORIA 1996-07-22 12:00:00 TS 14.0000 128.475 35 996 tokyo main 382 368 OOOO__________ jtwc_wp WP091996 13.9000 128.200 45 0 13.9000 128.200 3 35 996 0 9 100 100 0 13.9000 128.200 2 34 998 14.3000 129.300 TS 35 995 9 302
1996201N07137 1996 52 WP MM GLORIA 1996-07-22 15:00:00 TS 14.2405 128.141 main 359 358 PPPP__________ WP091996 14.1425 127.985 45 0 14.1848 127.785 3 35 996 0 9 100 100 14.1848 127.785 2 34 998 14.4499 129.007 TS 37 992 8 308
1996201N07137 1996 52 WP MM GLORIA 1996-07-22 18:00:00 TS 14.5000 127.825 35 996 tokyo main 358 345 OOOO__________ jtwc_wp WP091996 14.4000 127.800 45 0 14.5000 127.400 3 35 996 0 9 100 100 0 14.5000 127.400 2 34 998 14.6000 128.700 TS 40 990 8 308
1996201N07137 1996 52 WP MM GLORIA 1996-07-22 21:00:00 TS 14.7569 127.464 main 348 315 PPPP__________ WP091996 14.6424 127.672 47 0 14.7926 126.935 3 40 990 0 9 170 170 14.8076 126.935 2 36 996 14.7850 128.315 TS 40 990 9 307
1996201N07137 1996 52 WP MM GLORIA 1996-07-23 00:00:00 TS 15.0250 127.100 45 985 tokyo main 315 296 OOOO__________ jtwc_wp WP091996 14.9000 127.500 50 0 15.1000 126.500 3 45 985 0 9 240 240 0 15.1000 126.500 2 38 995 15.0000 127.900 TS 40 990 9 309
1996201N07137 1996 52 WP MM GLORIA 1996-07-23 03:00:00 TS 15.3162 126.755 main 302 287 PPPP__________ WP091996 15.2000 127.188 52 0 15.4574 126.162 3 45 985 0 9 240 240 15.3574 126.170 2 41 992 15.2499 127.500 TS 42 987 9 311
1996201N07137 1996 52 WP MM GLORIA 1996-07-23 06:00:00 TS 15.6000 126.425 45 985 tokyo main 287 279 OOOO__________ jtwc_wp WP091996 15.5000 126.800 55 0 15.8000 125.900 3 45 985 0 9 240 240 0 15.6000 125.900 2 44 990 15.5000 127.100 TS 45 985 8 310
1996201N07137 1996 52 WP MM GLORIA 1996-07-23 09:00:00 TS 15.8468 126.107 main 279 275 PPPP__________ WP091996 15.7574 126.415 57 0 16.0724 125.692 3 47 982 0 9 282 282 15.8425 125.635 2 46 987 15.7150 126.685 TS 47 982 8 308
1996201N07137 1996 52 WP MM GLORIA 1996-07-23 12:00:00 TS 16.0750 125.800 50 980 tokyo main 284 279 OOOO__________ jtwc_wp WP091996 16.0000 126.000 60 0 16.3000 125.500 4 50 980 0 9 325 325 0 16.1000 125.400 3 48 985 15.9000 126.300 STS 50 980 8 308
1996201N07137 1996 52 WP MM GLORIA 1996-07-23 15:00:00 TS 16.3075 125.492 main 287 283 PPPP__________ WP091996 16.2576 125.535 62 0 16.5150 125.243 4 50 980 0 9 325 325 16.4150 125.193 3 48 985 16.0423 126.000 STS 50 980 7 308
1996201N07137 1996 52 WP MM GLORIA 1996-07-23 18:00:00 TS 16.5250 125.200 50 980 tokyo main 291 267 OOOO__________ jtwc_wp WP091996 16.5000 125.100 65 1 16.7000 125.000 4 50 980 0 9 325 325 0 16.7000 125.000 3 48 985 16.2000 125.700 STS 50 980 7 308
1996201N07137 1996 52 WP MM GLORIA 1996-07-23 21:00:00 TS 16.7162 124.943 main 256 234 PPPP__________ WP091996 16.6998 124.777 67 1 16.8574 124.865 4 55 975 0 9 337 337 16.8724 124.815 3 53 982 16.4350 125.315 STS 50 980 6 307
1996201N07137 1996 52 WP MM GLORIA 1996-07-24 00:00:00 TS 16.9000 124.675 60 970 tokyo main 234 202 OOOO__________ jtwc_wp WP091996 16.9000 124.500 70 1 17.0000 124.700 4 60 970 9 50 50 9 350 350 0 17.0000 124.600 3 58 980 16.7000 124.900 STS 50 980 7 303
1996201N07137 1996 52 WP MM GLORIA 1996-07-24 03:00:00 TS 17.0925 124.341 main 191 162 PPPP__________ WP091996 17.1500 124.193 75 1 17.1351 124.372 4 62 967 9 60 60 9 400 350 17.1350 124.315 3 61 977 16.9500 124.485 STS 57 975 8 302
1996201N07137 1996 52 WP MM GLORIA 1996-07-24 06:00:00 TS 17.3000 124.000 65 965 tokyo main 162 139 OOOO__________ jtwc_wp WP091996 17.4000 123.900 80 1 17.3000 124.000 5 65 965 9 70 70 5 450 350 0 17.3000 124.000 4 64 975 17.2000 124.100 T 65 970 8 305
1996201N07137 1996 52 WP MM GLORIA 1996-07-24 09:00:00 TS 17.5262 123.701 main 139 119 PPPP__________ WP091996 17.5924 123.642 85 2 17.5350 123.685 5 65 965 9 70 70 5 425 375 17.5350 123.693 4 64 975 17.4424 123.785 T 65 970 7 311
1996201N07137 1996 52 WP MM GLORIA 1996-07-24 12:00:00 TS 17.7750 123.425 65 965 tokyo main 119 100 OOOO__________ jtwc_wp WP091996 17.8000 123.400 90 2 17.8000 123.400 5 65 965 9 70 70 9 400 400 0 17.8000 123.400 4 64 975 17.7000 123.500 T 65 970 7 315
1996201N07137 1996 52 WP MM GLORIA 1996-07-24 15:00:00 TS 18.0349 123.168 main 100 63 PPPP__________ WP091996 18.0850 123.150 90 2 18.0424 123.157 5 65 965 9 70 70 9 400 400 18.0273 123.165 4 64 975 17.9850 123.200 T 67 967 7 318
1996201N07137 1996 52 WP MM GLORIA 1996-07-24 18:00:00 TS 18.3250 122.900 65 965 tokyo main 63 38 OOOO__________ jtwc_wp WP091996 18.4000 122.900 90 2 18.3000 122.900 5 65 965 9 70 70 9 400 400 0 18.3000 122.900 4 64 975 18.3000 122.900 T 70 965 8 317
1996201N07137 1996 52 WP MM GLORIA 1996-07-24 21:00:00 TS 18.6551 122.569 main 46 39 PPPP__________ WP091996 18.7075 122.650 90 2 18.5776 122.543 5 65 965 9 70 70 9 350 350 18.6927 122.493 4 64 972 18.6425 122.592 T 70 965 9 318
1996201N07137 1996 52 WP MM GLORIA 1996-07-25 00:00:00 TS 19.0000 122.250 65 965 tokyo main 67 67 OOOO__________ jtwc_wp WP091996 19.0000 122.400 90 2 18.9000 122.200 5 65 965 9 70 70 9 300 300 0 19.1000 122.100 4 64 970 19.0000 122.300 T 70 965 9 323
1996201N07137 1996 52 WP MM GLORIA 1996-07-25 03:00:00 TS 19.3511 122.016 main 112 112 PPPP__________ WP091996 19.2650 122.142 90 2 19.3148 121.992 5 65 965 9 70 70 9 300 270 19.4373 121.877 4 66 970 19.3874 122.050 T 70 965 8 327
1996201N07137 1996 52 WP MM GLORIA 1996-07-25 06:00:00 TS 19.6500 121.800 65 965 tokyo main 140 137 OOOO__________ jtwc_wp WP091996 19.5000 121.900 90 2 19.7000 121.800 5 65 965 9 70 70 4 300 240 0 19.7000 121.700 4 68 970 19.7000 121.800 T 70 965 7 316
1996201N07137 1996 52 WP MM GLORIA 1996-07-25 09:00:00 TS 19.8313 121.519 main 145 145 PPPP__________ WP091996 19.6999 121.692 90 2 19.9376 121.485 5 65 965 9 70 70 4 300 240 19.8651 121.427 4 72 967 19.8226 121.470 T 75 962 6 303
1996201N07137 1996 52 WP MM GLORIA 1996-07-25 12:00:00 TS 19.9750 121.275 65 965 tokyo main 162 159 OOOO__________ jtwc_wp WP091996 19.9000 121.500 90 2 20.1000 121.200 5 65 965 9 70 70 4 300 240 0 20.0000 121.200 4 77 965 19.9000 121.200 T 80 960 5 313
1996201N07137 1996 52 WP MM GLORIA 1996-07-25 15:00:00 TS 20.1562 121.152 main 181 169 PPPP__________ WP091996 20.1200 121.292 90 2 20.2424 121.062 5 65 965 9 70 70 4 300 270 20.1849 121.127 4 77 965 20.0774 121.127 T 80 960 4 335
1996201N07137 1996 52 WP MM GLORIA 1996-07-25 18:00:00 TS 20.3750 121.075 65 965 tokyo main 169 145 OOOO__________ jtwc_wp WP091996 20.4000 121.100 90 2 20.4000 121.000 5 65 965 9 70 70 9 300 300 0 20.4000 121.100 4 77 965 20.3000 121.100 T 80 960 5 338
1996201N07137 1996 52 WP MM GLORIA 1996-07-25 21:00:00 TS 20.6325 120.951 main 145 111 PPPP__________ WP091996 20.7850 120.920 90 2 20.6200 120.950 5 65 965 9 75 75 9 300 300 20.6275 121.000 4 72 967 20.4976 120.935 T 80 960 6 340
1996201N07137 1996 52 WP MM GLORIA 1996-07-26 00:00:00 TS 20.9500 120.850 65 965 tokyo main 100 67 OOOO__________ jtwc_wp WP091996 21.2000 120.800 90 2 20.9000 120.900 5 65 965 9 80 80 9 300 300 0 20.9000 120.900 4 68 970 20.8000 120.800 T 80 960 7 354
1996201N07137 1996 52 WP MM GLORIA 1996-07-26 03:00:00 TS 21.2804 120.873 main 67 22 PPPP__________ WP091996 21.4974 120.822 90 2 21.1749 120.852 5 65 965 9 80 80 9 300 300 21.1748 120.902 4 66 972 21.2747 120.916 T 80 960 8 357
1996201N07137 1996 52 WP MM GLORIA 1996-07-26 06:00:00 TS 21.7500 120.800 65 965 tokyo main 11 0 OOOO__________ jtwc_wp WP091996 21.9000 120.800 90 2 21.6000 120.700 5 65 965 9 80 80 9 300 300 0 21.6000 120.800 4 64 975 21.9000 120.900 T 80 960 13 341
1996201N07137 1996 52 WP MM GLORIA 1996-07-26 09:00:00 TS 22.4908 120.433 main 0 0 PPPP__________ WP091996 22.6348 120.583 85 2 22.3276 120.353 5 62 970 9 75 75 9 280 280 22.3277 120.411 4 64 975 22.6731 120.384 T 75 965 17 332
1996201N07137 1996 52 WP MM GLORIA 1996-07-26 12:00:00 TS 23.2500 119.925 60 975 tokyo main 23 23 OOOO__________ jtwc_wp WP091996 23.4000 120.200 80 1 23.1000 119.900 4 60 975 9 70 70 9 260 260 0 23.1000 119.900 4 64 975 23.4000 119.700 T 70 970 15 326
1996201N07137 1996 52 WP MM GLORIA 1996-07-26 15:00:00 TS 23.7644 119.489 main 65 52 PPPP__________ WP091996 23.9248 119.710 75 1 23.6444 119.501 4 57 977 9 60 60 9 240 240 23.6144 119.493 4 56 977 23.8738 119.251 T 67 975 13 316
1996201N07137 1996 52 WP MM GLORIA 1996-07-26 18:00:00 TS 24.1750 118.950 55 980 tokyo main 52 0 OOOO__________ jtwc_wp WP091996 24.3000 119.100 70 1 24.1000 119.000 4 55 980 9 50 50 9 220 220 0 24.1000 119.000 3 48 980 24.2000 118.700 T 65 980 14 307
1996201N07137 1996 52 WP MM GLORIA 1996-07-26 21:00:00 TS 24.6179 118.232 main 0 0 PPPP__________ WP091996 24.5950 118.422 65 1 24.5796 118.332 4 47 985 9 9 185 185 24.7943 118.348 3 41 985 24.5028 117.825 T 57 982 16 300
1996201N07137 1996 52 WP MM GLORIA 1996-07-27 00:00:00 TS 24.9933 117.413 40 990 tokyo main 0 0 OOOO__________ jtwc_wp WP091996 24.8000 117.700 60 0 25.0000 117.500 3 40 990 0 9 150 150 0 25.4000 117.500 2 34 990 24.7000 116.800 STS 50 985 17 292
1996201N07137 1996 52 WP MM GLORIA 1996-07-27 03:00:00 TS 25.2425 116.503 main 0 0 PPPP__________ WP091996 24.9723 116.992 52 0 25.3152 116.529 3 991 0 9 25.6695 116.347 2 31 990 24.7833 115.787 STS 37 988 17 286
1996201N07137 1996 52 WP MM GLORIA 1996-07-27 06:00:00 TS 25.4462 115.631 992 tokyo main 0 0 OOOO__________ jtwc_wp WP091996 25.1000 116.300 45 0 25.6000 115.500 2 992 0 0 0 25.8000 115.300 1 29 990 24.8000 114.800 TD 25 992 14 290
1996201N07137 1996 52 WP MM GLORIA 1996-07-27 09:00:00 TS 25.7333 114.998 main 0 0 PPP___________ WP091996 25.2149 115.620 37 0 25.9720 114.528 2 993 0 0 26.0129 114.847 1 26 991 TD 13 295
1996201N07137 1996 52 WP MM GLORIA 1996-07-27 12:00:00 TS 25.9909 114.309 994 tokyo main 0 0 OOO___________ jtwc_wp WP091996 25.3000 115.000 30 -1 26.3000 113.600 2 994 0 0 0 26.2000 114.500 1 23 992 14 290
1996201N07137 1996 52 WP MM GLORIA 1996-07-27 15:00:00 TS 26.2253 113.510 main 0 0 PPP___________ WP091996 25.3577 114.473 25 -1 26.5242 112.735 2 994 0 0 26.3603 113.803 1 21 992 16 284
1996201N07137 1996 52 WP MM GLORIA 1996-07-27 18:00:00 TS 26.3778 112.622 994 tokyo main 0 0 OOO___________ jtwc_wp WP091996 25.4000 114.000 20 -1 26.6000 111.900 2 994 0 0 0 26.4000 113.000 0 19 992 17 275
1996201N07137 1996 52 WP MM GLORIA 1996-07-27 21:00:00 TS 26.3741 111.589 main 0 0 _PP___________ WP091996 -1 26.4956 110.966 2 995 0 0 26.2526 112.212 0 18 992 17 263
1996201N07137 1996 52 WP MM GLORIA 1996-07-28 00:00:00 TS 26.1714 110.757 996 tokyo main 0 0 _OO___________ -1 26.3000 110.200 2 996 0 0 0 26.0000 111.500 0 17 993 13 254
1996201N07137 1996 52 WP MM GLORIA 1996-07-28 03:00:00 TS 26.0243 110.200 main 0 0 _PP___________ -1 26.1640 109.826 2 996 0 0 25.7450 110.950 0 17 993 9 253
1996201N07137 1996 52 WP MM GLORIA 1996-07-28 06:00:00 TS 25.9000 109.780 996 tokyo main 0 0 _OO___________ -1 26.0000 109.600 2 996 0 0 0 25.5000 110.500 0 17 993 9 250
1996201N07137 1996 52 WP MM GLORIA 1996-07-28 09:00:00 TS 25.7125 109.257 main 0 0 _P____________ -1 25.7125 109.257 2 996 0 0 0 9 243
1996201N07137 1996 52 WP MM GLORIA 1996-07-28 12:00:00 TS 25.5000 108.900 996 tokyo main 0 0 _O____________ -1 25.5000 108.900 2 996 0 0 0 7 254
1996201N07137 1996 52 WP MM GLORIA 1996-07-28 15:00:00 TS 25.5251 108.548 main 0 0 _P____________ -1 25.5251 108.548 2 996 0 0 7 288
1996201N07137 1996 52 WP MM GLORIA 1996-07-28 18:00:00 TS 25.7000 108.200 996 tokyo main 0 _O____________ -1 25.7000 108.200 2 996 0 0 0 7 299

デジタル台風データ・検索

IBTrACS Databaseについて

本データベースは、米国NOAAが公開する1842年以降の世界の熱帯低気圧のベストトラックデータアーカイブInternational Best Track Archive for Climate Stewardship (IBTrACS)を、ウェブで閲覧しやすい形式に変換したものです。

最終更新日:2021-11-26